createdAt,value
2023-03-02T00:02:58.193Z,2.38
2023-03-02T00:12:59.892Z,2.42
2023-03-02T00:23:01.468Z,2.60
2023-03-02T00:33:03.034Z,2.25
2023-03-02T00:43:04.609Z,3.08
2023-03-02T00:53:06.905Z,2.80
2023-03-02T01:03:08.567Z,3.00
2023-03-02T01:13:10.178Z,3.20
2023-03-02T01:23:11.675Z,3.17
2023-03-02T01:33:13.245Z,2.58
2023-03-02T01:43:17.566Z,3.60
2023-03-02T01:53:20.428Z,2.77
2023-03-02T02:03:25.527Z,3.10
2023-03-02T02:23:34.372Z,2.40
2023-03-02T02:33:36.829Z,3.22
2023-03-02T02:43:38.450Z,2.75
2023-03-02T02:53:58.691Z,2.67
2023-03-02T03:04:04.522Z,2.42
2023-03-02T03:14:19.720Z,2.40
2023-03-02T03:24:24.396Z,2.13
2023-03-02T03:34:28.550Z,2.40
2023-03-02T03:44:31.609Z,1.90
2023-03-02T03:54:33.308Z,2.00
2023-03-02T04:04:36.034Z,2.10
2023-03-02T04:14:49.932Z,2.33
2023-03-02T04:24:51.760Z,2.15
2023-03-02T04:34:53.703Z,2.28
2023-03-02T04:44:55.443Z,2.17
2023-03-02T04:54:56.999Z,2.92
2023-03-02T05:04:58.605Z,2.42
2023-03-02T05:15:00.542Z,2.22
2023-03-02T05:25:04.401Z,3.20
2023-03-02T05:35:06.476Z,2.50
2023-03-02T05:45:11.611Z,2.85
2023-03-02T05:55:14.741Z,2.77
2023-03-02T06:05:19.205Z,2.92
2023-03-02T06:15:20.740Z,3.33
2023-03-02T06:25:25.460Z,3.83
2023-03-02T06:35:27.441Z,3.53
2023-03-02T06:45:29.513Z,3.00
2023-03-02T07:06:08.493Z,2.78
2023-03-02T07:16:12.278Z,2.65
2023-03-02T07:26:14.773Z,2.80
2023-03-02T07:36:16.310Z,2.40
2023-03-02T07:46:17.881Z,2.10
2023-03-02T07:56:20.377Z,2.30
2023-03-02T08:06:22.149Z,1.83
2023-03-02T08:16:27.521Z,2.10
2023-03-02T08:26:29.016Z,2.08
2023-03-02T08:36:30.559Z,2.00
2023-03-02T08:46:32.085Z,1.83
2023-03-02T08:56:37.450Z,2.85
2023-03-02T09:06:41.660Z,2.65
2023-03-02T09:16:43.180Z,2.50
2023-03-02T09:26:44.796Z,2.65
2023-03-02T09:36:46.703Z,2.80
2023-03-02T09:46:54.503Z,2.38
2023-03-02T09:56:57.811Z,2.13
2023-03-02T10:07:13.669Z,1.75
2023-03-02T10:17:31.450Z,2.13
2023-03-02T10:27:43.192Z,2.20
2023-03-02T10:37:44.809Z,2.13
2023-03-02T10:47:46.352Z,2.10
2023-03-02T10:58:00.895Z,2.00
2023-03-02T11:08:03.917Z,2.10
2023-03-02T11:18:18.654Z,2.20
2023-03-02T11:28:40.422Z,2.00
2023-03-02T11:39:09.173Z,2.03
2023-03-02T11:49:40.896Z,2.05
2023-03-02T11:59:42.676Z,2.42
2023-03-02T12:09:44.346Z,2.53
2023-03-02T12:19:46.690Z,2.38
2023-03-02T12:29:51.426Z,2.22
2023-03-02T12:40:23.504Z,2.50
2023-03-02T12:50:27.402Z,2.53
2023-03-02T13:00:31.690Z,2.22
2023-03-02T13:10:53.837Z,2.13
2023-03-02T13:20:58.147Z,2.35
2023-03-02T13:31:00.810Z,2.20
2023-03-02T13:41:02.498Z,1.92
2023-03-02T13:51:17.725Z,2.53
2023-03-02T14:01:19.307Z,2.33
2023-03-02T14:11:20.961Z,2.67
2023-03-02T14:21:24.103Z,2.55
2023-03-02T14:31:25.792Z,2.30
2023-03-02T14:41:27.730Z,2.38
2023-03-02T14:51:32.513Z,2.33
2023-03-02T15:01:35.699Z,2.22
2023-03-02T15:11:39.377Z,2.33
2023-03-02T15:21:44.696Z,2.40
2023-03-02T15:31:46.636Z,2.78
2023-03-02T15:41:48.177Z,2.50
2023-03-02T15:51:51.983Z,2.38
2023-03-02T16:01:55.588Z,2.65
2023-03-02T16:11:58.906Z,2.58
2023-03-02T16:22:00.383Z,2.60
2023-03-02T16:32:02.021Z,2.50
2023-03-02T16:42:04.407Z,2.53
2023-03-02T16:52:05.897Z,2.50
2023-03-02T17:02:07.429Z,2.35
2023-03-02T17:12:09.039Z,2.22
2023-03-02T17:22:10.592Z,2.53
2023-03-02T17:32:12.088Z,2.08
2023-03-02T17:42:13.622Z,2.47
2023-03-02T17:52:16.755Z,2.10
2023-03-02T18:02:18.932Z,1.92
2023-03-02T18:12:20.439Z,2.20
2023-03-02T18:22:22.210Z,2.10
2023-03-02T18:32:23.839Z,1.85
2023-03-02T18:42:25.352Z,1.90
2023-03-02T18:52:26.961Z,2.20
2023-03-02T19:02:29.020Z,1.80
2023-03-02T19:12:35.201Z,1.98
2023-03-02T19:22:36.712Z,1.90
2023-03-02T19:32:38.312Z,1.88
2023-03-02T19:42:40.195Z,1.73
2023-03-02T19:52:42.224Z,2.40
2023-03-02T20:02:45.055Z,1.80
2023-03-02T20:12:46.508Z,2.25
2023-03-02T20:22:49.419Z,2.33
2023-03-02T20:32:50.887Z,2.47
2023-03-02T20:42:53.172Z,2.40
2023-03-02T20:52:56.046Z,3.13
2023-03-02T21:02:58.104Z,3.30
2023-03-02T21:12:59.857Z,2.95
2023-03-02T21:23:01.984Z,2.97
2023-03-02T21:33:03.634Z,3.22
2023-03-02T21:43:06.165Z,2.58
2023-03-02T21:53:07.815Z,2.97
2023-03-02T22:03:09.328Z,3.20
2023-03-02T22:13:24.264Z,2.70
2023-03-02T22:23:26.949Z,3.10
2023-03-02T22:33:29.501Z,3.00
2023-03-02T22:43:34.108Z,3.15
2023-03-02T22:53:40.639Z,2.90
2023-03-02T23:03:44.390Z,2.88
2023-03-02T23:13:46.286Z,2.38
2023-03-02T23:23:48.754Z,2.58
2023-03-02T23:33:50.302Z,2.38
2023-03-02T23:43:54.096Z,2.60
2023-03-02T23:53:56.124Z,2.50
